Time;durP1;ratioP1;P1;durP2;ratioP2;P2;SDS_P1;SDS_P2;PMS_P1;PMS_P2;Temp;Humidity;BMP_temperature;BMP_pressure;BME280_temperature;BME280_humidity;BME280_pressure;Samples;Min_cycle;Max_cycle;Signal;HPM_P1;HPM_P2
2023/08/13 00:00:15;;;;;;;9.43;8.43;;;;;;;19.38;100.00;98364.28;5051393;28;20208;-84
2023/08/13 00:02:42;;;;;;;8.60;7.67;;;;;;;19.37;100.00;98362.59;5051672;28;20213;-84
2023/08/13 00:05:08;;;;;;;8.97;7.47;;;;;;;19.34;100.00;98362.06;5051626;28;20231;-84
2023/08/13 00:07:36;;;;;;;9.07;8.17;;;;;;;19.30;100.00;98366.06;5051628;28;20599;-84
2023/08/13 00:10:02;;;;;;;9.60;8.57;;;;;;;19.31;100.00;98368.59;5051282;28;20204;-84
2023/08/13 00:12:30;;;;;;;12.10;9.40;;;;;;;19.33;100.00;98361.22;5051396;28;20223;-84
2023/08/13 00:14:57;;;;;;;11.53;9.90;;;;;;;19.32;100.00;98359.53;5051438;28;20232;-84
2023/08/13 00:17:24;;;;;;;14.20;10.30;;;;;;;19.34;100.00;98365.59;5051255;28;20209;-84
2023/08/13 00:19:50;;;;;;;12.43;9.70;;;;;;;19.29;100.00;98349.16;5051111;28;20281;-84
2023/08/13 00:22:17;;;;;;;11.17;8.83;;;;;;;19.28;100.00;98357.34;5051367;28;20208;-84
2023/08/13 00:24:44;;;;;;;10.77;8.53;;;;;;;19.22;100.00;98348.09;5051031;28;20236;-83
2023/08/13 00:27:10;;;;;;;11.27;8.20;;;;;;;19.21;100.00;98345.56;5051255;28;20234;-83
2023/08/13 00:29:40;;;;;;;10.33;8.63;;;;;;;19.18;100.00;98352.03;5051230;28;20208;-83
2023/08/13 00:32:07;;;;;;;12.47;9.77;;;;;;;19.16;100.00;98367.44;5054627;28;20237;-83
2023/08/13 00:34:33;;;;;;;11.43;9.63;;;;;;;19.19;100.00;98367.09;5058080;28;20594;-83
2023/08/13 00:37:00;;;;;;;12.90;9.63;;;;;;;19.21;100.00;98361.63;5057985;28;20207;-83
2023/08/13 00:39:26;;;;;;;13.90;10.60;;;;;;;19.20;100.00;98366.13;5057467;28;20218;-83
2023/08/13 00:41:53;;;;;;;17.90;12.43;;;;;;;19.22;100.00;98352.59;5058064;28;20577;-83
2023/08/13 00:44:20;;;;;;;18.90;13.17;;;;;;;19.28;100.00;98354.66;5057883;28;20278;-83
2023/08/13 00:46:48;;;;;;;17.93;11.93;;;;;;;19.32;100.00;98353.34;5057907;28;20661;-83
2023/08/13 00:49:15;;;;;;;19.07;13.13;;;;;;;19.30;100.00;98356.19;5057647;28;20210;-83
2023/08/13 00:51:42;;;;;;;16.33;11.63;;;;;;;19.27;100.00;98359.16;5057782;28;20738;-83
2023/08/13 00:54:09;;;;;;;17.77;11.83;;;;;;;19.27;100.00;98355.66;5057732;28;20261;-83
2023/08/13 00:56:36;;;;;;;15.23;10.60;;;;;;;19.27;100.00;98356.47;5058375;28;20212;-83
2023/08/13 00:59:04;;;;;;;16.43;11.37;;;;;;;19.26;100.00;98354.78;5057148;28;20227;-83
2023/08/13 01:01:31;;;;;;;15.93;11.60;;;;;;;19.26;100.00;98349.44;5057616;28;20203;-83
2023/08/13 01:03:59;;;;;;;14.30;11.63;;;;;;;19.30;100.00;98355.31;5057632;28;20234;-83
2023/08/13 01:06:32;;;;;;;16.13;11.70;;;;;;;19.30;100.00;98352.66;5057679;28;20647;-83
2023/08/13 01:09:06;;;;;;;15.20;11.33;;;;;;;19.28;100.00;98355.50;5057898;28;20210;-83
2023/08/13 01:11:42;;;;;;;13.17;10.50;;;;;;;19.29;100.00;98349.16;5057565;28;20534;-83
2023/08/13 01:14:12;;;;;;;13.03;10.13;;;;;;;19.23;100.00;98357.81;5057377;28;20231;-83
2023/08/13 01:16:42;;;;;;;10.80;8.87;;;;;;;19.20;100.00;98354.56;5057534;28;20668;-83
2023/08/13 01:19:12;;;;;;;9.47;8.17;;;;;;;19.12;100.00;98352.63;5057454;28;20208;-83
2023/08/13 01:21:39;;;;;;;10.77;8.57;;;;;;;19.09;100.00;98352.09;5058114;28;20277;-83
2023/08/13 01:24:07;;;;;;;9.90;8.27;;;;;;;19.10;100.00;98362.69;5057538;28;20234;-81
2023/08/13 01:26:41;;;;;;;11.23;8.60;;;;;;;19.06;100.00;98361.28;5057960;28;20207;-83
2023/08/13 01:29:13;;;;;;;10.90;8.67;;;;;;;19.01;100.00;98360.06;5057164;28;20219;-83
2023/08/13 01:31:43;;;;;;;10.97;9.00;;;;;;;19.00;100.00;98359.22;5057497;28;20231;-83
2023/08/13 01:34:11;;;;;;;11.03;8.80;;;;;;;18.98;100.00;98358.53;5057346;28;20229;-83
2023/08/13 01:36:37;;;;;;;12.57;9.37;;;;;;;18.96;100.00;98357.84;5057700;28;20210;-83
2023/08/13 01:39:05;;;;;;;11.23;8.67;;;;;;;18.94;100.00;98359.84;5057356;28;20231;-83
2023/08/13 01:41:46;;;;;;;9.00;8.10;;;;;;;18.88;100.00;98347.06;5057149;28;20254;-83
2023/08/13 01:44:12;;;;;;;8.23;7.33;;;;;;;18.78;100.00;98356.97;5053208;28;20302;-83
2023/08/13 01:46:39;;;;;;;6.33;5.73;;;;;;;18.65;100.00;98353.81;5054367;28;20410;-83
2023/08/13 01:49:06;;;;;;;7.70;6.77;;;;;;;18.62;100.00;98354.16;5053941;28;20754;-83
2023/08/13 01:51:32;;;;;;;6.83;6.13;;;;;;;18.61;100.00;98356.97;5053859;28;20236;-83
2023/08/13 01:53:59;;;;;;;8.13;7.00;;;;;;;18.61;100.00;98368.53;5053876;28;20233;-83
2023/08/13 01:56:25;;;;;;;7.60;6.77;;;;;;;18.68;100.00;98361.56;5053815;28;20209;-84
2023/08/13 01:58:53;;;;;;;7.87;7.07;;;;;;;18.76;100.00;98360.78;5053676;28;20215;-83
2023/08/13 02:01:19;;;;;;;10.13;8.63;;;;;;;18.84;100.00;98342.97;5053463;28;20208;-83
2023/08/13 02:03:46;;;;;;;8.00;7.20;;;;;;;18.76;100.00;98345.59;5053598;28;20239;-83
2023/08/13 02:06:12;;;;;;;9.00;8.07;;;;;;;18.73;100.00;98353.94;5053775;28;20204;-83
2023/08/13 02:08:39;;;;;;;7.90;7.10;;;;;;;18.77;100.00;98363.34;5053630;28;20311;-83
2023/08/13 02:11:05;;;;;;;8.77;7.87;;;;;;;18.81;100.00;98364.72;5053206;28;20323;-83
2023/08/13 02:13:32;;;;;;;7.70;6.90;;;;;;;18.86;100.00;98369.63;5053391;28;20227;-83
2023/08/13 02:16:03;;;;;;;8.70;7.53;;;;;;;18.94;100.00;98358.97;5053791;28;20216;-83
2023/08/13 02:18:30;;;;;;;12.00;9.00;;;;;;;19.01;100.00;98355.53;5053755;28;20211;-83
2023/08/13 02:20:56;;;;;;;16.93;10.50;;;;;;;19.08;100.00;98361.97;5053161;28;20659;-82
2023/08/13 02:23:23;;;;;;;14.33;9.37;;;;;;;19.12;100.00;98354.47;5053202;28;20214;-80
2023/08/13 02:25:50;;;;;;;15.03;10.03;;;;;;;19.16;100.00;98355.84;5068013;22;20234;-81
2023/08/13 02:28:16;;;;;;;17.50;11.80;;;;;;;19.14;100.00;98347.97;5053623;28;20213;-80
2023/08/13 02:30:43;;;;;;;23.70;14.40;;;;;;;19.13;100.00;98337.41;5052947;28;20222;-80
2023/08/13 02:33:10;;;;;;;18.17;12.00;;;;;;;19.12;100.00;98346.44;5053108;28;20315;-80
2023/08/13 02:35:37;;;;;;;15.63;11.13;;;;;;;19.10;100.00;98351.97;5053177;28;20228;-79
2023/08/13 02:38:04;;;;;;;13.40;9.07;;;;;;;19.05;100.00;98345.34;5053080;28;20587;-81
2023/08/13 02:40:30;;;;;;;10.77;9.13;;;;;;;19.01;100.00;98339.47;5052798;28;20207;-79
2023/08/13 02:42:56;;;;;;;12.97;10.20;;;;;;;19.01;100.00;98344.81;5053053;28;20212;-79
2023/08/13 02:45:23;;;;;;;11.80;9.50;;;;;;;19.00;100.00;98345.81;5052748;28;20231;-79
2023/08/13 02:47:49;;;;;;;11.03;8.83;;;;;;;18.94;100.00;98338.41;5053039;28;20698;-80
2023/08/13 02:50:17;;;;;;;11.43;8.43;;;;;;;18.95;100.00;98339.25;5052608;28;20219;-80
2023/08/13 02:52:44;;;;;;;10.67;8.60;;;;;;;18.89;100.00;98343.38;5052712;28;20238;-80
2023/08/13 02:55:11;;;;;;;12.57;8.87;;;;;;;18.87;100.00;98340.00;5052484;28;20235;-79
2023/08/13 02:57:37;;;;;;;10.63;8.60;;;;;;;18.85;100.00;98331.28;5056616;28;20213;-80
2023/08/13 03:00:04;;;;;;;12.07;8.83;;;;;;;18.84;100.00;98326.91;5057957;28;20215;-78
2023/08/13 03:02:31;;;;;;;12.03;9.17;;;;;;;18.85;100.00;98328.63;5057858;28;20204;-79
2023/08/13 03:04:58;;;;;;;14.73;10.73;;;;;;;18.88;100.00;98330.13;5057611;28;20317;-77
2023/08/13 03:07:26;;;;;;;14.43;10.50;;;;;;;18.93;100.00;98336.72;5055023;28;20204;-80
2023/08/13 03:09:52;;;;;;;14.10;10.40;;;;;;;18.96;100.00;98325.69;5052586;28;20223;-79
2023/08/13 03:12:19;;;;;;;13.97;11.57;;;;;;;19.01;100.00;98322.56;5052853;28;20228;-79
2023/08/13 03:14:46;;;;;;;14.90;11.23;;;;;;;18.98;100.00;98334.44;5052703;28;20228;-78
2023/08/13 03:17:13;;;;;;;13.97;11.10;;;;;;;19.04;100.00;98322.25;5052560;28;20212;-79
2023/08/13 03:19:39;;;;;;;13.20;10.03;;;;;;;19.04;100.00;98312.38;5052548;28;20208;-79
2023/08/13 03:22:06;;;;;;;12.03;8.90;;;;;;;19.04;100.00;98323.09;5052418;28;20219;-79
2023/08/13 03:24:33;;;;;;;12.30;9.77;;;;;;;19.06;100.00;98323.78;5052295;28;20236;-79
2023/08/13 03:27:00;;;;;;;17.50;11.93;;;;;;;19.06;100.00;98321.09;5052431;28;20204;-79
2023/08/13 03:29:26;;;;;;;16.80;11.60;;;;;;;19.10;100.00;98322.50;5051839;28;20682;-79
2023/08/13 03:31:53;;;;;;;16.37;11.50;;;;;;;19.11;100.00;98326.84;5051843;28;20239;-81
2023/08/13 03:34:19;;;;;;;19.10;12.43;;;;;;;19.14;100.00;98323.84;5051876;28;20229;-79
2023/08/13 03:36:46;;;;;;;18.70;12.03;;;;;;;19.19;100.00;98320.72;5052060;28;20208;-80
2023/08/13 03:39:13;;;;;;;18.20;11.43;;;;;;;19.15;100.00;98322.84;5051834;28;20658;-79
2023/08/13 03:41:40;;;;;;;19.47;12.37;;;;;;;19.12;100.00;98325.00;5052080;28;20204;-81
2023/08/13 03:44:07;;;;;;;17.67;12.23;;;;;;;19.07;100.00;98321.97;5051756;28;20233;-80
2023/08/13 03:46:33;;;;;;;15.90;10.90;;;;;;;19.02;100.00;98341.16;5051809;28;20208;-80
2023/08/13 03:49:00;;;;;;;17.50;11.57;;;;;;;19.00;100.00;98331.59;5051702;28;20208;-79
2023/08/13 03:51:26;;;;;;;20.00;11.23;;;;;;;19.00;100.00;98316.38;5051663;28;20216;-79
2023/08/13 03:53:53;;;;;;;19.20;11.40;;;;;;;18.99;100.00;98329.91;5051621;28;20232;-80
2023/08/13 03:56:19;;;;;;;15.67;9.97;;;;;;;18.95;100.00;98333.91;5051578;28;20702;-80
2023/08/13 03:58:47;;;;;;;16.23;11.53;;;;;;;18.96;100.00;98323.00;5051778;28;20735;-80
2023/08/13 04:01:14;;;;;;;15.70;10.30;;;;;;;18.97;100.00;98322.00;5051431;28;20214;-80
2023/08/13 04:03:40;;;;;;;16.43;10.20;;;;;;;18.94;100.00;98322.34;5051479;28;20212;-80
2023/08/13 04:06:07;;;;;;;14.37;9.33;;;;;;;18.93;100.00;98330.50;5050792;28;20208;-80
2023/08/13 04:08:35;;;;;;;14.40;9.90;;;;;;;18.93;100.00;98326.00;5051587;28;20212;-79
2023/08/13 04:11:01;;;;;;;13.67;9.60;;;;;;;18.93;100.00;98325.16;5051197;28;20328;-80
2023/08/13 04:13:28;;;;;;;18.70;12.10;;;;;;;18.94;100.00;98335.72;5051380;28;20235;-80
2023/08/13 04:15:56;;;;;;;16.50;12.10;;;;;;;18.95;100.00;98328.53;5051242;28;20238;-80
2023/08/13 04:18:22;;;;;;;18.57;12.40;;;;;;;18.96;100.00;98324.88;5051089;28;20216;-80
2023/08/13 04:20:49;;;;;;;16.97;12.03;;;;;;;18.92;100.00;98326.16;5050982;28;20664;-80
2023/08/13 04:23:15;;;;;;;14.83;11.37;;;;;;;18.87;100.00;98328.44;5051399;28;20208;-80
2023/08/13 04:25:42;;;;;;;16.37;11.10;;;;;;;18.79;100.00;98337.25;5051169;28;20240;-80
2023/08/13 04:28:08;;;;;;;16.40;10.30;;;;;;;18.79;100.00;98323.88;5051247;28;20204;-80
2023/08/13 04:30:35;;;;;;;19.73;12.17;;;;;;;18.78;100.00;98330.19;5050989;28;20207;-80
2023/08/13 04:33:03;;;;;;;14.87;9.93;;;;;;;18.81;100.00;98335.25;5051071;28;20232;-80
2023/08/13 04:35:30;;;;;;;16.77;10.40;;;;;;;18.82;100.00;98326.22;5051021;28;20235;-79
2023/08/13 04:37:57;;;;;;;14.97;10.60;;;;;;;18.85;100.00;98323.25;5051277;28;20207;-79
2023/08/13 04:40:23;;;;;;;15.97;11.33;;;;;;;18.89;100.00;98318.44;5051041;28;20214;-79
2023/08/13 04:42:50;;;;;;;14.67;10.03;;;;;;;18.93;100.00;98317.13;5051131;28;20211;-79
2023/08/13 04:45:16;;;;;;;11.97;8.87;;;;;;;18.97;100.00;98311.28;5050934;28;20237;-79
2023/08/13 04:47:43;;;;;;;12.30;9.70;;;;;;;19.01;100.00;98312.69;5051181;28;20241;-79
2023/08/13 04:50:11;;;;;;;12.03;9.00;;;;;;;19.06;100.00;98309.53;5050584;28;20212;-79
2023/08/13 04:52:37;;;;;;;12.47;9.03;;;;;;;19.10;100.00;98306.41;5051113;28;20234;-81
2023/08/13 04:55:05;;;;;;;16.60;9.93;;;;;;;19.11;100.00;98308.09;5051236;28;20230;-79
2023/08/13 04:57:31;;;;;;;12.13;8.57;;;;;;;19.11;100.00;98309.91;5050893;28;20208;-79
2023/08/13 04:59:58;;;;;;;12.23;8.67;;;;;;;19.12;100.00;98317.81;5050603;28;20212;-80
2023/08/13 05:02:25;;;;;;;12.87;8.97;;;;;;;19.16;100.00;98343.31;5051067;28;20215;-79
2023/08/13 05:04:51;;;;;;;17.60;10.17;;;;;;;19.22;100.00;98342.72;5050968;28;20227;-79
2023/08/13 05:07:19;;;;;;;21.07;10.50;;;;;;;19.26;100.00;98337.91;5051441;28;20241;-79
2023/08/13 05:09:46;;;;;;;15.47;8.97;;;;;;;19.27;100.00;98327.00;5050647;28;20666;-79
2023/08/13 05:12:12;;;;;;;14.67;9.37;;;;;;;19.25;100.00;98326.31;5050850;28;20239;-79
2023/08/13 05:14:39;;;;;;;13.17;10.00;;;;;;;19.25;100.00;98326.31;5050633;28;20341;-79
2023/08/13 05:17:17;;;;;;;12.63;8.90;;;;;;;19.24;100.00;98329.16;5051128;28;20568;-78
2023/08/13 05:19:43;;;;;;;11.27;8.67;;;;;;;19.25;100.00;98329.00;5054469;28;20203;-80
2023/08/13 05:22:10;;;;;;;13.37;9.43;;;;;;;19.27;100.00;98321.63;5054585;28;20200;-80
2023/08/13 05:24:38;;;;;;;12.60;8.80;;;;;;;19.31;100.00;98325.69;5054505;28;20261;-79
2023/08/13 05:27:04;;;;;;;11.97;9.03;;;;;;;19.32;100.00;98318.50;5054404;28;20204;-80
2023/08/13 05:29:31;;;;;;;16.73;11.57;;;;;;;19.30;100.00;98329.38;5054126;28;20219;-79
2023/08/13 05:31:57;;;;;;;15.27;11.20;;;;;;;19.33;100.00;98331.75;5054571;28;20219;-79
2023/08/13 05:34:24;;;;;;;15.50;10.70;;;;;;;19.33;100.00;98323.69;5054361;28;20622;-81
2023/08/13 05:36:50;;;;;;;16.17;10.37;;;;;;;19.34;100.00;98330.75;5054454;28;20208;-82
2023/08/13 05:39:17;;;;;;;16.40;11.93;;;;;;;19.33;100.00;98331.75;5054109;28;20212;-83
2023/08/13 05:41:45;;;;;;;16.43;11.43;;;;;;;19.34;100.00;98333.44;5054128;28;20223;-80
2023/08/13 05:44:11;;;;;;;16.70;11.77;;;;;;;19.36;100.00;98328.75;5054623;28;20224;-81
2023/08/13 05:46:38;;;;;;;15.53;10.73;;;;;;;19.39;100.00;98328.44;5054287;28;20208;-81
2023/08/13 05:49:04;;;;;;;19.03;11.13;;;;;;;19.42;100.00;98336.19;5054402;28;20216;-80
2023/08/13 05:51:31;;;;;;;18.43;11.50;;;;;;;19.46;100.00;98334.88;5053865;28;20216;-81
2023/08/13 05:53:57;;;;;;;14.67;10.43;;;;;;;19.49;100.00;98333.69;5054104;28;20228;-81
2023/08/13 05:56:24;;;;;;;14.10;9.67;;;;;;;19.52;100.00;98344.13;5054274;28;20227;-80
2023/08/13 05:58:52;;;;;;;17.03;10.37;;;;;;;19.58;100.00;98343.50;5054028;28;20214;-84
2023/08/13 06:01:18;;;;;;;19.20;11.70;;;;;;;19.60;100.00;98336.13;5053744;28;20584;-77
2023/08/13 06:03:45;;;;;;;19.23;11.83;;;;;;;19.64;100.00;98343.69;5053919;28;20295;-78
2023/08/13 06:06:12;;;;;;;16.13;11.20;;;;;;;19.67;100.00;98338.03;5054014;28;20215;-78
2023/08/13 06:08:38;;;;;;;21.80;13.27;;;;;;;19.74;100.00;98338.25;5053556;28;20621;-78
2023/08/13 06:11:05;;;;;;;15.40;11.13;;;;;;;19.76;100.00;98341.63;5053641;28;20214;-79
2023/08/13 06:13:38;;;;;;;16.13;10.77;;;;;;;19.76;100.00;98339.75;5053612;28;20726;-80
2023/08/13 06:16:06;;;;;;;14.63;11.03;;;;;;;19.79;100.00;98344.81;5053717;28;20642;-79
2023/08/13 06:18:33;;;;;;;17.47;11.83;;;;;;;19.83;100.00;98342.66;5053790;28;20208;-83
2023/08/13 06:20:59;;;;;;;18.10;11.93;;;;;;;19.87;100.00;98342.19;5053144;28;20208;-81
2023/08/13 06:23:26;;;;;;;14.80;10.33;;;;;;;19.90;100.00;98333.81;5053840;28;20214;-81
2023/08/13 06:25:52;;;;;;;14.00;10.40;;;;;;;19.92;100.00;98331.81;5053182;28;20728;-79
2023/08/13 06:28:19;;;;;;;17.63;11.47;;;;;;;19.95;100.00;98327.97;5053571;28;20208;-79
2023/08/13 06:30:45;;;;;;;15.50;11.00;;;;;;;19.99;100.00;98324.81;5052438;28;20204;-79
2023/08/13 06:33:13;;;;;;;17.53;11.67;;;;;;;20.00;100.00;98328.34;5053280;28;20228;-79
2023/08/13 06:35:40;;;;;;;17.60;12.10;;;;;;;20.05;100.00;98332.22;5053290;28;20609;-79
2023/08/13 06:38:06;;;;;;;22.47;13.97;;;;;;;20.13;100.00;98340.38;5053169;28;20303;-79
2023/08/13 06:40:33;;;;;;;18.47;12.70;;;;;;;20.17;100.00;98336.34;5053083;28;20285;-80
2023/08/13 06:42:59;;;;;;;20.97;12.80;;;;;;;20.19;100.00;98331.63;5053041;28;20215;-81
2023/08/13 06:45:27;;;;;;;18.90;12.33;;;;;;;20.19;100.00;98337.00;5052997;28;20224;-82
2023/08/13 06:47:53;;;;;;;16.97;11.73;;;;;;;20.21;100.00;98342.22;5053201;28;20582;-83
2023/08/13 06:50:21;;;;;;;18.77;13.37;;;;;;;20.17;100.00;98347.06;5052718;28;20216;-85
2023/08/13 06:52:47;;;;;;;17.80;11.70;;;;;;;20.15;100.00;98351.78;5053046;28;20253;-83
2023/08/13 06:55:14;;;;;;;19.87;11.47;;;;;;;20.16;100.00;98347.22;5053234;28;20224;-84
2023/08/13 06:57:41;;;;;;;16.37;11.93;;;;;;;20.18;100.00;98354.13;5053134;28;20210;-85
2023/08/13 07:00:08;;;;;;;16.73;11.20;;;;;;;20.17;100.00;98347.06;5052810;28;20302;-84
2023/08/13 07:02:37;;;;;;;18.17;11.33;;;;;;;20.19;100.00;98345.06;5052980;28;20231;-84
2023/08/13 07:05:04;;;;;;;17.97;11.23;;;;;;;20.21;100.00;98336.84;5052662;28;20553;-84
2023/08/13 07:07:33;;;;;;;19.40;13.23;;;;;;;20.28;100.00;98333.38;5052553;28;20431;-85
2023/08/13 07:10:00;;;;;;;15.77;10.73;;;;;;;20.32;100.00;98337.44;5052632;28;20212;-84
2023/08/13 07:12:26;;;;;;;15.50;10.27;;;;;;;20.41;100.00;98344.50;5050015;28;20254;-84
2023/08/13 07:14:53;;;;;;;14.33;10.47;;;;;;;20.45;100.00;98340.50;5051646;28;20237;-84
2023/08/13 07:17:19;;;;;;;16.33;11.43;;;;;;;20.48;100.00;98345.53;5051508;28;20346;-81
2023/08/13 07:19:46;;;;;;;14.50;10.63;;;;;;;20.49;100.00;98343.69;5051688;28;20212;-81
2023/08/13 07:22:13;;;;;;;17.97;11.43;;;;;;;20.47;100.00;98348.41;5051167;28;20781;-82
2023/08/13 07:24:41;;;;;;;12.63;9.87;;;;;;;20.44;100.00;98337.97;5051258;28;20240;-78
2023/08/13 07:27:09;;;;;;;11.77;9.50;;;;;;;20.43;100.00;98331.75;5050878;28;20219;-80
2023/08/13 07:29:35;;;;;;;13.80;9.63;;;;;;;20.46;100.00;98339.47;5047995;28;20200;-80
2023/08/13 07:32:02;;;;;;;12.40;9.03;;;;;;;20.47;100.00;98327.75;5048068;28;20562;-79
2023/08/13 07:34:28;;;;;;;17.67;11.00;;;;;;;20.59;100.00;98337.19;5048364;28;20247;-80
2023/08/13 07:36:55;;;;;;;13.67;9.43;;;;;;;20.71;100.00;98341.25;5051138;28;20204;-79
2023/08/13 07:39:23;;;;;;;17.70;11.13;;;;;;;20.82;100.00;98338.25;5050988;28;20215;-78
2023/08/13 07:41:51;;;;;;;17.13;11.60;;;;;;;20.89;100.00;98344.69;5047826;28;20389;-75
2023/08/13 07:44:17;;;;;;;18.53;11.33;;;;;;;20.88;100.00;98343.00;5048204;28;20933;-74
2023/08/13 07:46:44;;;;;;;15.37;10.67;;;;;;;20.90;100.00;98343.66;5048214;28;20221;-76
2023/08/13 07:49:10;;;;;;;14.17;10.43;;;;;;;20.92;100.00;98340.81;5048967;28;20215;-75
2023/08/13 07:51:37;;;;;;;14.50;9.60;;;;;;;20.95;100.00;98338.63;5051011;28;20204;-76
2023/08/13 07:54:04;;;;;;;14.30;10.90;;;;;;;21.08;100.00;98333.63;5050237;28;20240;-76
2023/08/13 07:56:30;;;;;;;14.80;11.23;;;;;;;21.23;100.00;98341.84;5048377;28;20211;-76
2023/08/13 07:58:59;;;;;;;13.43;10.83;;;;;;;21.40;100.00;98339.00;5048416;28;20571;-76
2023/08/13 08:01:28;;;;;;;13.67;10.20;;;;;;;21.50;100.00;98334.28;5048775;28;20768;-76
2023/08/13 08:03:55;;;;;;;10.43;9.10;;;;;;;21.50;100.00;98339.69;5050768;28;20572;-86
2023/08/13 08:06:22;;;;;;;11.17;8.77;;;;;;;21.53;100.00;98338.50;5051434;28;20679;-85
2023/08/13 08:08:48;;;;;;;10.30;8.90;;;;;;;21.49;100.00;98346.06;5051454;28;20208;-84
2023/08/13 08:11:15;;;;;;;9.70;8.63;;;;;;;21.51;100.00;98345.91;5051259;28;20587;-85
2023/08/13 08:13:42;;;;;;;9.70;8.70;;;;;;;21.50;100.00;98339.69;5050780;28;20241;-85
2023/08/13 08:16:10;;;;;;;9.97;8.13;;;;;;;21.50;100.00;98334.28;5051788;28;20763;-85
2023/08/13 08:18:37;;;;;;;9.93;8.93;;;;;;;21.48;100.00;98347.09;5051462;28;20226;-85
2023/08/13 08:21:03;;;;;;;10.37;8.30;;;;;;;21.55;100.00;98342.69;5051332;28;20850;-86
2023/08/13 08:23:30;;;;;;;8.83;7.93;;;;;;;21.59;100.00;98337.81;5051480;28;20223;-85
2023/08/13 08:25:56;;;;;;;11.40;9.67;;;;;;;21.78;100.00;98335.66;5065951;22;20245;-81
2023/08/13 08:28:23;;;;;;;12.57;10.33;;;;;;;21.93;100.00;98325.84;5050823;28;20207;-82
2023/08/13 08:30:49;;;;;;;10.70;9.03;;;;;;;22.12;100.00;98317.38;5050846;28;20231;-82
2023/08/13 08:33:17;;;;;;;10.20;9.10;;;;;;;22.28;100.00;98328.09;5050909;28;20235;-80
2023/08/13 08:35:45;;;;;;;9.03;8.13;;;;;;;22.37;100.00;98334.31;5050782;28;20718;-83
2023/08/13 08:38:13;;;;;;;8.67;7.77;;;;;;;22.45;100.00;98339.69;5050823;28;20212;-84
2023/08/13 08:40:42;;;;;;;8.13;6.80;;;;;;;22.37;100.00;98329.72;5050941;28;20252;-84
2023/08/13 08:43:10;;;;;;;7.87;7.00;;;;;;;22.44;100.00;98336.13;5051194;28;20204;-84
2023/08/13 08:45:37;;;;;;;8.20;6.67;;;;;;;22.49;100.00;98339.16;5050841;28;20247;-82
2023/08/13 08:48:06;;;;;;;7.40;6.70;;;;;;;22.52;100.00;98333.41;5051190;28;20584;-82
2023/08/13 08:50:36;;;;;;;7.77;6.40;;;;;;;22.55;100.00;98351.91;5050904;28;20212;-82
2023/08/13 08:53:03;;;;;;;7.17;6.47;;;;;;;22.55;100.00;98360.00;5052543;28;20219;-83
2023/08/13 08:55:29;;;;;;;7.23;6.53;;;;;;;22.58;100.00;98356.13;5055159;28;20228;-83
2023/08/13 08:57:56;;;;;;;7.57;6.70;;;;;;;22.75;100.00;98366.63;5054330;28;20685;-83
2023/08/13 09:00:22;;;;;;;7.77;6.63;;;;;;;22.85;100.00;98367.25;5052007;28;20258;-83
2023/08/13 09:02:49;;;;;;;6.27;5.67;;;;;;;22.93;100.00;98382.56;5051706;28;20302;-89
2023/08/13 09:05:16;;;;;;;5.97;5.47;;;;;;;22.97;100.00;98382.00;5051841;28;20235;-84
2023/08/13 09:07:44;;;;;;;6.35;5.78;;;;;;;22.90;100.00;98391.84;5051638;28;20803;-84
2023/08/13 09:10:11;;;;;;;6.80;5.43;;;;;;;22.83;100.00;98404.34;5053235;28;20215;-84
2023/08/13 09:12:40;;;;;;;6.03;5.50;;;;;;;22.95;100.00;98410.16;5054038;28;20223;-80
2023/08/13 09:15:09;;;;;;;5.50;5.00;;;;;;;23.09;100.00;98404.84;5051457;28;20235;-81
2023/08/13 09:17:36;;;;;;;5.60;5.10;;;;;;;23.22;100.00;98418.63;5054413;28;20243;-81
2023/08/13 09:20:10;;;;;;;5.80;5.27;;;;;;;23.28;100.00;98411.69;5054176;28;20208;-83
2023/08/13 09:22:36;;;;;;;6.27;5.50;;;;;;;23.37;100.00;98411.47;5054448;28;20291;-81
2023/08/13 09:25:05;;;;;;;6.97;5.67;;;;;;;23.53;100.00;98411.34;5054176;28;20264;-81
2023/08/13 09:27:32;;;;;;;5.97;4.90;;;;;;;23.74;100.00;98414.22;5054450;28;20211;-80
2023/08/13 09:29:59;;;;;;;5.20;4.70;;;;;;;23.86;100.00;98414.59;5051408;28;20478;-81
2023/08/13 09:32:28;;;;;;;5.10;4.60;;;;;;;24.12;100.00;98397.00;5053832;28;20304;-80
2023/08/13 09:34:54;;;;;;;5.00;4.30;;;;;;;24.35;100.00;98392.38;5053624;28;20323;-80
2023/08/13 09:37:24;;;;;;;4.40;3.90;;;;;;;24.39;100.00;98382.03;5054516;28;20216;-81
2023/08/13 09:39:50;;;;;;;4.17;3.77;;;;;;;24.42;100.00;98381.66;5053969;28;20204;-81
2023/08/13 09:42:19;;;;;;;4.27;3.80;;;;;;;24.54;100.00;98385.56;5054187;28;20607;-80
2023/08/13 09:44:47;;;;;;;4.63;4.20;;;;;;;24.70;100.00;98380.81;5053811;28;20232;-80
2023/08/13 09:47:19;;;;;;;4.03;3.63;;;;;;;24.58;100.00;98376.94;5053820;28;20224;-80
2023/08/13 09:49:46;;;;;;;4.27;3.87;;;;;;;24.53;100.00;98382.03;5053834;28;20196;-80
2023/08/13 09:52:21;;;;;;;4.37;3.67;;;;;;;24.67;100.00;98381.22;5053936;28;20212;-80
2023/08/13 09:54:48;;;;;;;4.20;3.80;;;;;;;24.86;100.00;98375.22;5053639;28;20227;-80
2023/08/13 09:57:17;;;;;;;4.23;3.77;;;;;;;25.09;100.00;98375.91;5053807;28;20558;-80
2023/08/13 09:59:46;;;;;;;5.00;3.87;;;;;;;25.37;100.00;98368.72;5053372;28;20214;-80
2023/08/13 10:02:15;;;;;;;4.80;3.67;;;;;;;25.58;100.00;98366.03;5053700;28;20208;-80
2023/08/13 10:04:42;;;;;;;4.77;3.90;;;;;;;25.72;100.00;98367.00;5052666;28;20250;-80
2023/08/13 10:07:09;;;;;;;3.60;3.30;;;;;;;25.60;100.00;98368.56;5053539;28;20204;-80
2023/08/13 10:09:36;;;;;;;3.80;3.40;;;;;;;25.65;100.00;98364.22;5053182;28;20210;-80
2023/08/13 10:12:05;;;;;;;3.87;3.47;;;;;;;25.74;100.00;98371.19;5053612;28;20204;-80
2023/08/13 10:14:32;;;;;;;4.23;3.53;;;;;;;25.75;100.00;98356.63;5052962;28;20286;-80
2023/08/13 10:17:02;;;;;;;4.17;3.67;;;;;;;25.67;100.00;98359.44;5052988;28;20216;-80
2023/08/13 10:19:29;;;;;;;3.70;3.40;;;;;;;25.46;100.00;98356.75;5052798;28;20305;-78
2023/08/13 10:21:57;;;;;;;4.00;3.60;;;;;;;25.41;100.00;98353.78;5053385;28;20538;-80
2023/08/13 10:24:24;;;;;;;4.33;3.50;;;;;;;25.43;100.00;98351.72;5053047;28;20224;-79
2023/08/13 10:26:51;;;;;;;5.73;3.70;;;;;;;25.65;100.00;98355.25;5053209;28;20746;-79
2023/08/13 10:29:18;;;;;;;3.67;3.37;;;;;;;25.79;100.00;98343.53;5052630;28;20215;-79
2023/08/13 10:31:49;;;;;;;4.40;4.00;;;;;;;25.45;100.00;98355.09;5053290;28;20815;-79
2023/08/13 10:34:18;;;;;;;3.90;3.60;;;;;;;25.51;100.00;98359.72;5052915;28;20741;-80
2023/08/13 10:36:56;;;;;;;3.93;3.50;;;;;;;25.35;100.00;98346.44;5053066;28;20362;-80
2023/08/13 10:39:33;;;;;;;4.07;3.47;;;;;;;25.45;100.00;98348.81;5052470;28;20215;-79
2023/08/13 10:42:00;;;;;;;3.43;3.13;;;;;;;25.57;100.00;98353.53;5052924;28;20215;-83
2023/08/13 10:44:28;;;;;;;3.57;3.27;;;;;;;25.61;100.00;98346.69;5052492;28;20227;-82
2023/08/13 10:46:55;;;;;;;3.47;3.17;;;;;;;25.53;100.00;98337.88;5052581;28;20208;-81
2023/08/13 10:49:22;;;;;;;4.73;3.80;;;;;;;25.77;100.00;98340.16;5052246;28;20218;-82
2023/08/13 10:51:49;;;;;;;3.67;3.37;;;;;;;25.92;100.00;98341.75;5052613;28;20235;-83
2023/08/13 10:54:16;;;;;;;3.53;3.23;;;;;;;26.06;100.00;98343.56;5052527;28;20236;-83
2023/08/13 10:56:45;;;;;;;3.90;3.60;;;;;;;26.20;100.00;98337.16;5052717;28;20216;-83
2023/08/13 10:59:11;;;;;;;4.17;3.50;;;;;;;26.23;96.16;98323.25;5052424;28;20242;-83
2023/08/13 11:02:14;;;;;;;4.60;3.67;;;;;;;26.05;94.35;98331.03;5052539;28;20216;-83
2023/08/13 11:04:45;;;;;;;3.87;3.23;;;;;;;25.95;98.39;98335.13;5052089;28;20405;-83
2023/08/13 11:07:12;;;;;;;4.10;3.40;;;;;;;25.93;97.86;98337.19;5052533;28;20204;-83
2023/08/13 11:09:39;;;;;;;3.60;3.30;;;;;;;25.59;98.27;98343.34;5052177;28;20212;-83
2023/08/13 11:12:09;;;;;;;4.17;3.43;;;;;;;25.46;100.00;98345.94;5052385;28;20211;-83
2023/08/13 11:14:37;;;;;;;3.70;3.40;;;;;;;25.36;100.00;98348.13;5052325;28;20236;-83
2023/08/13 11:17:04;;;;;;;3.87;3.57;;;;;;;25.36;100.00;98350.81;5051729;28;20212;-83